Time;durP1;ratioP1;P1;durP2;ratioP2;P2;SDS_P1;SDS_P2;PMS_P1;PMS_P2;Temp;Humidity;BMP_temperature;BMP_pressure;BME280_temperature;BME280_humidity;BME280_pressure;Samples;Min_cycle;Max_cycle;Signal;HPM_P1;HPM_P2
2022/07/11 00:02:13;;;;;;;4.80;2.80;;;;;;;14.32;100.00;99832.75;5090553;28;21001;-87
2022/07/11 00:04:40;;;;;;;4.47;3.15;;;;;;;14.20;100.00;99821.22;5073432;28;20131;-88
2022/07/11 00:07:06;;;;;;;5.88;3.22;;;;;;;14.27;100.00;99829.56;5072944;28;20039;-88
2022/07/11 00:09:32;;;;;;;6.88;2.90;;;;;;;14.26;100.00;99830.50;5073316;28;20057;-88
2022/07/11 00:11:58;;;;;;;5.93;3.08;;;;;;;14.16;100.00;99821.50;5072770;28;20055;-88
2022/07/11 00:14:24;;;;;;;7.03;3.25;;;;;;;14.07;100.00;99796.66;5073323;28;20024;-88
2022/07/11 00:16:51;;;;;;;4.65;2.67;;;;;;;14.20;100.00;99830.88;5072730;28;20055;-87
2022/07/11 00:19:16;;;;;;;4.90;3.00;;;;;;;14.17;100.00;99823.19;5071251;28;20029;-88
2022/07/11 00:21:42;;;;;;;6.18;2.90;;;;;;;14.17;100.00;99823.19;5070830;28;20039;-88
2022/07/11 00:24:07;;;;;;;5.72;2.70;;;;;;;14.14;100.00;99826.81;5070937;28;20033;-87
2022/07/11 00:26:34;;;;;;;5.15;2.97;;;;;;;14.12;100.00;99822.63;5071065;28;20398;-88
2022/07/11 00:28:59;;;;;;;5.78;2.78;;;;;;;14.08;100.00;99813.25;5070632;28;20112;-87
2022/07/11 00:31:25;;;;;;;5.63;2.40;;;;;;;14.09;100.00;99822.78;5070942;28;20468;-88
2022/07/11 00:33:50;;;;;;;3.90;2.40;;;;;;;14.07;100.00;99806.31;5070902;28;20024;-88
2022/07/11 00:36:15;;;;;;;4.68;2.75;;;;;;;14.05;100.00;99814.25;5070562;28;20443;-87
2022/07/11 00:38:41;;;;;;;5.63;3.25;;;;;;;14.03;100.00;99818.75;5072238;28;20033;-88
2022/07/11 00:41:06;;;;;;;5.65;2.63;;;;;;;14.01;100.00;99819.78;5071996;28;20434;-88
2022/07/11 00:43:34;;;;;;;3.95;2.50;;;;;;;13.87;100.00;99799.63;5070790;28;20032;-88
2022/07/11 00:46:00;;;;;;;5.45;2.85;;;;;;;13.90;100.00;99802.03;5070566;28;20040;-88
2022/07/11 00:48:25;;;;;;;6.50;2.80;;;;;;;13.88;100.00;99806.53;5071995;28;20124;-88
2022/07/11 00:50:51;;;;;;;5.18;2.58;;;;;;;13.81;100.00;99810.44;5070610;28;20607;-88
2022/07/11 00:53:18;;;;;;;6.88;2.80;;;;;;;13.71;100.00;99804.88;5070691;28;20024;-88
2022/07/11 00:55:44;;;;;;;3.95;2.20;;;;;;;13.67;100.00;99806.84;5070727;28;20033;-88
2022/07/11 00:58:10;;;;;;;5.70;2.50;;;;;;;13.60;100.00;99802.88;5070532;28;20085;-87
2022/07/11 01:00:35;;;;;;;5.20;2.85;;;;;;;13.57;100.00;99802.19;5070681;28;20020;-87
2022/07/11 01:03:00;;;;;;;5.57;2.70;;;;;;;13.54;100.00;99805.84;5089214;28;20135;-87
2022/07/11 01:05:27;;;;;;;5.97;2.33;;;;;;;13.42;100.00;99796.06;5089371;28;20143;-88
2022/07/11 01:07:52;;;;;;;5.68;2.63;;;;;;;13.36;100.00;99797.25;5089477;28;20047;-88
2022/07/11 01:10:18;;;;;;;7.07;2.80;;;;;;;13.28;100.00;99790.78;5072582;28;20040;-88
2022/07/11 01:12:43;;;;;;;4.90;2.55;;;;;;;13.18;100.00;99793.84;5078947;28;20040;-88
2022/07/11 01:15:10;;;;;;;7.93;2.88;;;;;;;13.14;100.00;99792.31;5095816;28;20028;-88
2022/07/11 01:17:35;;;;;;;6.35;2.70;;;;;;;13.11;100.00;99797.75;5079095;28;20131;-88
2022/07/11 01:20:00;;;;;;;4.47;2.35;;;;;;;13.08;100.00;99794.44;5078806;28;20110;-87
2022/07/11 01:22:28;;;;;;;7.90;2.90;;;;;;;13.02;100.00;99802.59;5079057;28;20047;-87
2022/07/11 01:24:55;;;;;;;8.80;3.47;;;;;;;12.98;100.00;99807.19;5078997;28;20157;-88
2022/07/11 01:27:22;;;;;;;5.78;2.53;;;;;;;12.95;100.00;99804.72;5095979;28;20036;-87
2022/07/11 01:29:47;;;;;;;5.05;2.60;;;;;;;12.93;100.00;99799.56;5075461;28;20184;-87
2022/07/11 01:32:13;;;;;;;5.43;2.70;;;;;;;12.80;100.00;99795.91;5075531;28;20476;-88
2022/07/11 01:34:38;;;;;;;5.35;2.40;;;;;;;12.72;100.00;99788.50;5075531;28;20119;-87
2022/07/11 01:37:04;;;;;;;4.00;2.60;;;;;;;12.70;100.00;99792.97;5058595;28;20024;-88
2022/07/11 01:39:29;;;;;;;4.22;2.38;;;;;;;12.62;100.00;99796.91;5058935;28;20040;-88
2022/07/11 01:41:57;;;;;;;5.20;2.60;;;;;;;12.55;100.00;99803.38;5058987;28;20095;-88
2022/07/11 01:44:22;;;;;;;8.25;2.70;;;;;;;12.49;100.00;99799.31;5058910;28;20037;-88
2022/07/11 01:46:48;;;;;;;4.80;2.60;;;;;;;12.36;100.00;99788.66;5058850;28;20032;-88
2022/07/11 01:49:13;;;;;;;4.90;2.85;;;;;;;12.36;100.00;99791.28;5058535;28;20040;-88
2022/07/11 01:51:38;;;;;;;6.20;2.45;;;;;;;12.09;100.00;99771.78;5058886;28;20044;-87
2022/07/11 01:54:04;;;;;;;6.47;2.63;;;;;;;12.25;100.00;99798.81;5058611;28;20025;-88
2022/07/11 01:56:32;;;;;;;5.22;2.70;;;;;;;12.20;100.00;99795.59;5058677;28;20051;-88
2022/07/11 01:58:58;;;;;;;5.47;2.92;;;;;;;12.14;100.00;99793.31;5058626;28;20033;-87
2022/07/11 02:01:24;;;;;;;5.82;2.65;;;;;;;12.02;100.00;99779.09;5071340;28;20075;-88
2022/07/11 02:03:49;;;;;;;6.82;3.13;;;;;;;12.06;100.00;99790.22;5078173;28;20535;-88
2022/07/11 02:06:15;;;;;;;5.85;3.17;;;;;;;11.99;100.00;99789.69;5076547;28;20530;-88
2022/07/11 02:08:40;;;;;;;8.90;2.83;;;;;;;12.01;100.00;99790.47;5076498;28;20158;-88
2022/07/11 02:11:05;;;;;;;4.50;2.72;;;;;;;11.95;100.00;99794.19;5076127;28;20079;-87
2022/07/11 02:13:31;;;;;;;3.92;2.60;;;;;;;11.93;100.00;99795.22;5077775;28;20383;-88
2022/07/11 02:15:56;;;;;;;6.05;2.50;;;;;;;11.88;100.00;99787.63;5076656;28;20048;-88
2022/07/11 02:18:22;;;;;;;8.35;3.00;;;;;;;11.86;100.00;99794.66;5076250;28;20032;-88
2022/07/11 02:20:50;;;;;;;5.40;2.20;;;;;;;11.82;100.00;99795.72;5076783;28;20039;-88
2022/07/11 02:23:16;;;;;;;5.68;2.63;;;;;;;11.76;100.00;99795.19;5073555;28;20031;-87
2022/07/11 02:25:42;;;;;;;6.40;2.90;;;;;;;11.48;100.00;99760.84;5074683;28;20493;-89
2022/07/11 02:28:08;;;;;;;5.00;2.75;;;;;;;11.71;100.00;99801.47;5072874;28;20071;-88
2022/07/11 02:30:38;;;;;;;3.20;2.50;;;;;;;11.67;100.00;99799.06;5074359;28;20055;-88
2022/07/11 02:33:05;;;;;;;4.82;2.85;;;;;;;11.52;100.00;99774.56;5073265;28;20066;-87
2022/07/11 02:35:31;;;;;;;7.32;3.00;;;;;;;11.61;100.00;99797.59;5073260;28;20036;-88
2022/07/11 02:37:56;;;;;;;4.32;2.80;;;;;;;11.53;100.00;99797.13;5073171;28;20065;-88
2022/07/11 02:40:22;;;;;;;6.15;2.75;;;;;;;11.55;100.00;99803.13;5074435;28;20040;-88
2022/07/11 02:42:47;;;;;;;8.52;2.78;;;;;;;11.56;100.00;99801.34;5073100;28;20074;-88
2022/07/11 02:45:13;;;;;;;4.05;2.70;;;;;;;11.45;100.00;99799.25;5072757;28;20525;-88
2022/07/11 02:47:39;;;;;;;5.20;2.85;;;;;;;11.48;100.00;99801.72;5074131;28;20413;-88
2022/07/11 02:50:11;;;;;;;7.05;3.05;;;;;;;11.51;100.00;99812.03;5072825;28;20028;-88
2022/07/11 02:52:37;;;;;;;4.82;2.67;;;;;;;11.46;100.00;99800.94;5072938;28;20028;-87
2022/07/11 02:55:02;;;;;;;4.57;2.70;;;;;;;11.48;100.00;99801.72;5072593;28;20032;-88
2022/07/11 02:57:28;;;;;;;4.72;2.70;;;;;;;11.52;100.00;99815.47;5072803;28;20561;-88
2022/07/11 02:59:54;;;;;;;4.13;2.38;;;;;;;11.52;100.00;99808.47;5072562;28;20369;-88
2022/07/11 03:02:19;;;;;;;5.40;2.90;;;;;;;11.45;100.00;99802.69;5072641;28;20491;-88
2022/07/11 03:04:45;;;;;;;6.43;3.10;;;;;;;11.52;100.00;99811.09;5072847;28;20032;-89
2022/07/11 03:07:11;;;;;;;4.82;2.55;;;;;;;11.49;100.00;99817.28;5072168;28;20020;-88
2022/07/11 03:09:36;;;;;;;5.07;2.90;;;;;;;11.46;100.00;99807.03;5072544;28;20479;-88
2022/07/11 03:12:01;;;;;;;8.02;2.90;;;;;;;11.48;100.00;99810.38;5072236;28;20454;-88
2022/07/11 03:14:27;;;;;;;9.45;3.10;;;;;;;11.36;100.00;99790.09;5073542;28;20033;-88
2022/07/11 03:16:52;;;;;;;3.63;2.65;;;;;;;11.45;100.00;99805.31;5072706;28;20032;-88
2022/07/11 03:19:18;;;;;;;6.70;2.75;;;;;;;11.52;100.00;99816.31;5072030;28;20063;-88
2022/07/11 03:21:43;;;;;;;5.18;3.08;;;;;;;11.55;100.00;99821.38;5072487;28;20028;-88
2022/07/11 03:24:08;;;;;;;4.15;2.78;;;;;;;11.47;100.00;99811.31;5072135;28;20077;-88
2022/07/11 03:26:34;;;;;;;6.00;3.05;;;;;;;11.51;100.00;99824.22;5073911;28;20439;-88
2022/07/11 03:28:59;;;;;;;5.20;2.85;;;;;;;11.43;100.00;99812.38;5073357;28;20025;-88
2022/07/11 03:31:25;;;;;;;5.85;2.70;;;;;;;11.40;100.00;99804.69;5071888;28;20460;-88
2022/07/11 03:33:50;;;;;;;3.97;2.50;;;;;;;11.44;100.00;99802.78;5071577;28;20032;-88
2022/07/11 03:36:15;;;;;;;3.50;2.53;;;;;;;11.35;100.00;99795.41;5071352;28;20545;-88
2022/07/11 03:38:41;;;;;;;5.43;2.55;;;;;;;11.52;100.00;99810.25;5072041;28;20023;-88
2022/07/11 03:41:06;;;;;;;6.18;2.65;;;;;;;11.53;100.00;99815.38;5071645;28;20097;-88
2022/07/11 03:43:31;;;;;;;6.28;3.13;;;;;;;11.57;100.00;99814.31;5071810;28;20033;-88
2022/07/11 03:45:57;;;;;;;6.47;3.00;;;;;;;11.53;100.00;99794.50;5072215;28;20539;-88
2022/07/11 03:48:22;;;;;;;5.75;3.00;;;;;;;11.59;100.00;99804.66;5071728;28;20020;-88
2022/07/11 03:50:48;;;;;;;7.68;3.30;;;;;;;11.69;100.00;99813.72;5071647;28;20029;-88
2022/07/11 03:53:14;;;;;;;6.03;2.95;;;;;;;11.70;100.00;99807.59;5072745;28;20039;-87
2022/07/11 03:55:40;;;;;;;7.18;3.10;;;;;;;11.70;100.00;99796.31;5071625;28;20032;-88
2022/07/11 03:58:05;;;;;;;6.50;3.17;;;;;;;11.80;100.00;99813.22;5071326;28;20391;-88
2022/07/11 04:00:31;;;;;;;6.18;3.10;;;;;;;11.89;100.00;99815.41;5071411;28;20051;-89
2022/07/11 04:02:57;;;;;;;4.85;2.85;;;;;;;11.91;100.00;99810.94;5071506;28;20025;-88
2022/07/11 04:05:22;;;;;;;9.32;3.40;;;;;;;12.06;100.00;99819.78;5071216;28;20387;-87
2022/07/11 04:07:48;;;;;;;6.65;3.17;;;;;;;12.17;100.00;99824.47;5071291;28;20028;-88
2022/07/11 04:10:13;;;;;;;4.97;3.08;;;;;;;12.35;100.00;99827.94;5071083;28;20521;-88
2022/07/11 04:12:39;;;;;;;7.07;2.95;;;;;;;12.63;100.00;99836.00;5071219;28;20098;-88
2022/07/11 04:15:06;;;;;;;7.38;3.03;;;;;;;13.08;100.00;99831.06;5071145;28;20101;-88
2022/07/11 04:17:32;;;;;;;9.10;2.72;;;;;;;13.65;100.00;99829.66;5071363;28;20059;-88
2022/07/11 04:19:57;;;;;;;8.07;3.05;;;;;;;14.25;100.00;99835.84;5071098;28;20373;-89
2022/07/11 04:22:23;;;;;;;8.68;3.33;;;;;;;15.06;95.62;99805.56;5070942;28;20031;-88
2022/07/11 04:24:49;;;;;;;5.55;2.65;;;;;;;15.51;91.06;99827.22;5071249;28;20227;-88
2022/07/11 04:27:14;;;;;;;8.05;2.92;;;;;;;15.57;90.58;99832.06;5070748;28;20025;-88
2022/07/11 04:29:40;;;;;;;4.95;2.45;;;;;;;15.39;90.92;99830.63;5070810;28;20017;-87
2022/07/11 04:32:05;;;;;;;7.65;3.15;;;;;;;15.77;89.60;99828.19;5071097;28;20035;-87
2022/07/11 04:34:31;;;;;;;5.75;2.78;;;;;;;16.01;87.33;99840.63;5070571;28;20125;-88
2022/07/11 04:36:56;;;;;;;5.95;2.67;;;;;;;15.72;86.95;99830.28;5071220;28;20030;-89
2022/07/11 04:39:22;;;;;;;4.55;2.53;;;;;;;15.49;87.98;99839.56;5070746;28;20078;-90
2022/07/11 04:41:47;;;;;;;8.30;2.60;;;;;;;15.21;89.12;99832.59;5070916;28;20060;-89
2022/07/11 04:44:12;;;;;;;6.80;2.80;;;;;;;15.12;89.62;99847.13;5070702;28;20050;-89
2022/07/11 04:46:38;;;;;;;8.73;3.08;;;;;;;15.04;90.47;99838.06;5070701;28;20083;-89
2022/07/11 04:49:03;;;;;;;6.75;2.75;;;;;;;14.97;90.80;99851.56;5070825;28;20448;-89
2022/07/11 04:51:29;;;;;;;8.13;3.10;;;;;;;15.03;92.20;99837.22;5070541;28;20381;-89
2022/07/11 04:53:54;;;;;;;7.50;2.80;;;;;;;15.66;90.61;99846.41;5070972;28;20034;-88
2022/07/11 04:56:19;;;;;;;7.25;2.90;;;;;;;15.87;89.61;99828.41;5070448;28;20460;-89
2022/07/11 04:58:45;;;;;;;7.32;2.90;;;;;;;16.51;87.61;99839.03;5070603;28;20464;-90
2022/07/11 05:01:10;;;;;;;6.28;3.00;;;;;;;17.14;84.63;99841.63;5070925;28;20422;-89
2022/07/11 05:03:39;;;;;;;4.78;2.50;;;;;;;17.66;82.98;99843.19;5071162;28;20033;-89
2022/07/11 05:06:06;;;;;;;4.88;2.42;;;;;;;18.10;80.26;99851.41;5072028;28;20102;-90
2022/07/11 05:08:32;;;;;;;7.03;2.95;;;;;;;18.42;79.37;99844.56;5070864;28;20032;-89
2022/07/11 05:10:58;;;;;;;5.13;2.47;;;;;;;18.69;76.65;99831.06;5070680;28;20025;-90
2022/07/11 05:13:23;;;;;;;7.70;2.90;;;;;;;19.10;74.68;99834.94;5070495;28;20450;-90
2022/07/11 05:15:49;;;;;;;6.53;2.40;;;;;;;19.31;74.68;99834.19;5071305;28;20037;-90
2022/07/11 05:18:14;;;;;;;5.10;2.50;;;;;;;19.45;73.89;99832.09;5070539;28;20064;-90
2022/07/11 05:20:40;;;;;;;6.38;2.33;;;;;;;19.74;73.57;99842.16;5070664;28;20460;-89
2022/07/11 05:23:05;;;;;;;5.30;2.28;;;;;;;20.07;71.75;99835.88;5070720;28;20035;-90
2022/07/11 05:25:30;;;;;;;5.00;2.60;;;;;;;20.44;70.68;99840.75;5070488;28;20090;-91
2022/07/11 05:27:56;;;;;;;6.20;2.50;;;;;;;20.71;69.38;99842.03;5071055;28;20463;-90
2022/07/11 05:30:21;;;;;;;4.18;2.20;;;;;;;21.58;66.96;99839.72;5067329;28;20056;-89
2022/07/11 05:32:47;;;;;;;7.68;2.13;;;;;;;23.53;61.02;99835.66;5070492;28;20029;-89
2022/07/11 05:35:12;;;;;;;6.07;2.10;;;;;;;25.18;56.00;99842.91;5070685;28;20467;-90
2022/07/11 05:37:38;;;;;;;3.80;2.03;;;;;;;24.26;55.61;99844.31;5070535;28;20036;-89
2022/07/11 05:40:04;;;;;;;5.63;2.30;;;;;;;22.64;58.74;99854.75;5071469;28;20117;-88
2022/07/11 05:42:31;;;;;;;5.28;2.05;;;;;;;21.49;62.44;99848.47;5069802;28;20033;-90
2022/07/11 05:44:56;;;;;;;6.25;2.30;;;;;;;21.40;63.90;99839.53;5070996;28;20021;-90
2022/07/11 05:47:21;;;;;;;5.95;2.42;;;;;;;21.43;63.71;99832.13;5071554;28;20036;-90
2022/07/11 05:49:47;;;;;;;4.50;2.33;;;;;;;21.77;63.36;99858.28;5070223;28;20023;-89
2022/07/11 05:52:12;;;;;;;4.05;1.92;;;;;;;22.33;62.06;99870.91;5070318;28;20052;-90
2022/07/11 05:54:37;;;;;;;6.78;2.05;;;;;;;22.53;61.86;99857.56;5070756;28;20029;-91
2022/07/11 05:57:03;;;;;;;6.65;2.15;;;;;;;22.12;61.61;99841.88;5070369;28;20024;-90
2022/07/11 05:59:29;;;;;;;6.55;2.53;;;;;;;21.67;62.71;99846.84;5073599;28;20472;-90
2022/07/11 06:01:54;;;;;;;3.63;1.85;;;;;;;21.21;63.93;99850.06;5075486;28;20468;-90
2022/07/11 06:04:20;;;;;;;5.50;2.10;;;;;;;20.78;65.30;99849.31;5073873;28;20021;-90
2022/07/11 06:06:46;;;;;;;5.43;2.28;;;;;;;20.42;66.80;99861.19;5073776;28;20435;-90
2022/07/11 06:09:11;;;;;;;4.78;2.45;;;;;;;19.98;68.24;99843.75;5073659;28;20028;-89
2022/07/11 06:11:36;;;;;;;8.25;2.40;;;;;;;19.60;69.90;99839.78;5073157;28;20052;-89
2022/07/11 06:14:02;;;;;;;6.88;2.22;;;;;;;19.29;71.15;99859.88;5073699;28;20081;-90
2022/07/11 06:16:28;;;;;;;6.75;2.15;;;;;;;18.95;72.41;99866.00;5075166;28;20033;-88
2022/07/11 06:18:53;;;;;;;8.82;2.42;;;;;;;18.64;73.33;99867.50;5073754;28;20119;-90
2022/07/11 06:21:21;;;;;;;5.45;2.63;;;;;;;18.34;75.24;99856.66;5073269;28;20039;-90
2022/07/11 06:23:47;;;;;;;5.47;2.10;;;;;;;18.08;76.53;99858.63;5073495;28;20054;-90
2022/07/11 06:26:14;;;;;;;4.75;2.35;;;;;;;17.96;76.94;99873.53;5073386;28;20032;-89
2022/07/11 06:28:40;;;;;;;4.28;1.95;;;;;;;17.79;78.17;99869.50;5073430;28;20085;-89
2022/07/11 06:31:05;;;;;;;4.75;2.40;;;;;;;17.59;78.34;99868.28;5073502;28;20032;-89
2022/07/11 06:33:30;;;;;;;6.18;3.00;;;;;;;17.43;80.59;99871.16;5073731;28;20055;-90
2022/07/11 06:35:56;;;;;;;6.57;2.10;;;;;;;17.25;80.95;99863.75;5073287;28;20079;-88
2022/07/11 06:38:22;;;;;;;6.00;2.20;;;;;;;17.02;81.27;99849.56;5072743;28;20021;-88
2022/07/11 06:40:48;;;;;;;5.38;2.20;;;;;;;17.00;83.30;99867.25;5073200;28;20024;-89
2022/07/11 06:43:13;;;;;;;6.63;2.70;;;;;;;16.88;84.44;99858.41;5073194;28;20158;-89
2022/07/11 06:45:39;;;;;;;5.82;2.28;;;;;;;16.83;85.25;99858.75;5074323;28;20117;-89
2022/07/11 06:48:05;;;;;;;6.20;2.30;;;;;;;16.80;86.32;99868.63;5073399;28;20116;-88
2022/07/11 06:50:31;;;;;;;4.80;2.00;;;;;;;16.79;86.64;99866.94;5074070;28;20101;-89
2022/07/11 06:52:56;;;;;;;7.65;2.45;;;;;;;16.67;87.37;99852.81;5073062;28;20468;-89
2022/07/11 06:55:22;;;;;;;6.38;2.20;;;;;;;16.71;87.94;99857.75;5072643;28;20028;-89
2022/07/11 06:57:49;;;;;;;5.30;2.25;;;;;;;16.83;87.93;99863.16;5072999;28;20036;-89
2022/07/11 07:00:15;;;;;;;4.95;2.30;;;;;;;16.78;87.45;99852.97;5073112;28;20028;-88
2022/07/11 07:02:40;;;;;;;10.20;2.63;;;;;;;16.83;87.02;99852.63;5072488;28;20051;-89
2022/07/11 07:05:06;;;;;;;5.28;2.40;;;;;;;16.83;86.70;99856.09;5072849;28;20071;-88
2022/07/11 07:07:31;;;;;;;6.85;2.22;;;;;;;16.82;87.07;99864.94;5072446;28;20029;-90
2022/07/11 07:09:57;;;;;;;9.40;2.85;;;;;;;16.73;87.49;99841.06;5073649;28;20105;-90
2022/07/11 07:12:22;;;;;;;5.45;2.00;;;;;;;16.81;86.88;99865.03;5072843;28;20472;-88
2022/07/11 07:14:48;;;;;;;4.70;2.00;;;;;;;16.88;87.44;99875.03;5072863;28;20070;-89
2022/07/11 07:17:14;;;;;;;6.25;2.22;;;;;;;16.91;87.26;99874.00;5072926;28;20457;-89
2022/07/11 07:19:39;;;;;;;6.93;2.20;;;;;;;17.27;87.36;99864.47;5072410;28;20545;-89
2022/07/11 07:22:08;;;;;;;9.25;2.60;;;;;;;17.68;84.90;99861.50;5072599;28;20032;-89
2022/07/11 07:24:35;;;;;;;9.18;2.13;;;;;;;18.38;82.06;99863.38;5072008;28;20120;-88
2022/07/11 07:27:00;;;;;;;4.13;2.13;;;;;;;18.92;80.16;99874.16;5072542;28;20112;-90
2022/07/11 07:29:26;;;;;;;6.18;2.20;;;;;;;19.29;77.64;99865.16;5072167;28;20448;-89
2022/07/11 07:31:52;;;;;;;7.32;1.90;;;;;;;19.42;75.75;99860.56;5073680;28;20436;-89
2022/07/11 07:34:19;;;;;;;8.15;2.67;;;;;;;19.31;74.83;99865.88;5072106;28;20024;-87
2022/07/11 07:36:44;;;;;;;3.95;1.98;;;;;;;20.02;74.26;99866.34;5072038;28;20031;-88
2022/07/11 07:39:10;;;;;;;7.07;2.42;;;;;;;20.46;71.63;99852.03;5071909;28;20052;-88
2022/07/11 07:41:35;;;;;;;9.98;2.40;;;;;;;21.62;69.07;99865.81;5071927;28;20117;-89
2022/07/11 07:44:01;;;;;;;3.13;1.67;;;;;;;22.15;66.88;99865.44;5071998;28;20090;-88
2022/07/11 07:46:27;;;;;;;4.30;2.17;;;;;;;22.56;65.39;99866.09;5071567;28;20021;-88
2022/07/11 07:48:52;;;;;;;4.38;1.92;;;;;;;22.42;63.66;99867.38;5071776;28;20035;-89
2022/07/11 07:51:17;;;;;;;8.85;2.67;;;;;;;22.14;63.54;99850.50;5071648;28;20032;-88
2022/07/11 07:53:43;;;;;;;3.85;1.88;;;;;;;22.17;64.65;99857.34;5071701;28;20021;-89
2022/07/11 07:56:08;;;;;;;6.13;2.30;;;;;;;22.32;64.08;99863.88;5071806;28;20025;-88
2022/07/11 07:58:34;;;;;;;6.00;2.10;;;;;;;22.93;63.13;99870.66;5071476;28;20074;-89
2022/07/11 08:03:43;;;;;;;5.78;1.83;;;;;;;24.18;58.74;99849.56;5072861;28;20039;-89
2022/07/11 08:06:08;;;;;;;4.72;2.08;;;;;;;24.42;58.72;99858.78;5070240;28;20130;-90
2022/07/11 08:08:34;;;;;;;4.18;1.30;;;;;;;24.71;58.78;99850.50;5070863;28;20365;-90
2022/07/11 08:11:01;;;;;;;4.13;1.70;;;;;;;24.63;57.87;99845.94;5071206;28;20072;-89
2022/07/11 08:13:28;;;;;;;3.58;1.80;;;;;;;24.55;58.17;99849.38;5070601;28;20039;-88
2022/07/11 08:15:53;;;;;;;4.55;2.35;;;;;;;24.43;57.81;99857.78;5071311;28;20081;-89
2022/07/11 08:18:18;;;;;;;7.95;1.88;;;;;;;24.22;57.55;99850.09;5051354;28;20037;-89
2022/07/11 08:20:44;;;;;;;2.85;1.50;;;;;;;23.97;57.67;99862.38;5050416;28;20056;-91
2022/07/11 08:23:09;;;;;;;3.55;1.80;;;;;;;23.55;58.20;99853.09;5051488;28;20024;-89
2022/07/11 08:25:34;;;;;;;3.55;1.65;;;;;;;23.03;58.16;99866.13;5051192;28;20033;-90
2022/07/11 08:28:00;;;;;;;4.22;1.50;;;;;;;22.54;59.55;99849.47;5051215;28;20468;-89
2022/07/11 08:30:25;;;;;;;4.07;1.45;;;;;;;22.41;59.19;99863.03;5050864;28;20029;-90
2022/07/11 08:32:51;;;;;;;4.95;1.77;;;;;;;22.29;60.60;99848.28;5051056;28;20051;-89
2022/07/11 08:35:17;;;;;;;4.55;1.80;;;;;;;22.07;60.96;99856.47;5057381;28;20104;-85
2022/07/11 08:37:43;;;;;;;3.80;1.85;;;;;;;21.68;61.65;99851.16;5070484;28;20551;-87
2022/07/11 08:43:42;;;;;;;6.90;2.15;;;;;;;21.05;63.63;99856.69;5057158;28;20499;-95
2022/07/11 08:46:09;;;;;;;3.60;1.67;;;;;;;20.82;65.07;99849.91;5069062;28;20032;-87
2022/07/11 08:48:38;;;;;;;5.07;1.92;;;;;;;20.80;66.17;99857.97;5074812;28;20035;-84
2022/07/11 08:51:05;;;;;;;5.68;1.77;;;;;;;20.66;65.51;99842.44;5072645;28;20074;-88
2022/07/11 08:53:32;;;;;;;2.67;1.70;;;;;;;20.61;65.95;99852.56;5072452;28;20027;-89
2022/07/11 08:55:58;;;;;;;3.67;1.80;;;;;;;20.59;66.79;99849.22;5065865;28;20159;-88
2022/07/11 08:58:24;;;;;;;3.28;1.48;;;;;;;20.54;67.23;99832.88;5052193;28;20059;-88
2022/07/11 09:00:51;;;;;;;2.97;1.58;;;;;;;20.65;66.39;99854.00;5057694;28;20136;-92
2022/07/11 09:03:17;;;;;;;3.17;1.45;;;;;;;20.60;66.17;99851.72;5070719;28;20029;-88
2022/07/11 09:05:44;;;;;;;7.68;6.38;;;;;;;20.55;67.04;99848.63;5070513;28;20466;-88
2022/07/11 09:08:10;;;;;;;6.78;5.25;;;;;;;20.34;68.52;99818.66;5071973;28;20060;-88
2022/07/11 09:10:40;;;;;;;9.40;7.28;;;;;;;20.32;69.15;99842.63;5070068;28;20028;-86
2022/07/11 09:13:15;;;;;;;6.35;3.78;;;;;;;20.25;70.74;99841.44;5064607;28;20037;-86
2022/07/11 09:15:45;;;;;;;5.90;2.13;;;;;;;20.21;71.15;99836.53;5050306;28;20078;-86
2022/07/11 09:18:36;;;;;;;3.20;1.67;;;;;;;20.37;70.94;99847.50;5050447;28;20433;-87
2022/07/11 09:26:38;;;;;;;3.78;1.60;;;;;;;20.17;69.92;99834.13;5051339;28;20542;-88
2022/07/11 09:29:11;;;;;;;3.58;1.42;;;;;;;20.07;70.49;99827.13;5051170;28;20476;-87
2022/07/11 09:31:39;;;;;;;5.38;1.90;;;;;;;19.95;71.02;99839.53;5052070;28;20035;-92
2022/07/11 09:34:13;;;;;;;5.03;1.52;;;;;;;19.85;71.70;99820.97;5056393;28;20029;-94
2022/07/11 09:37:08;;;;;;;6.57;2.00;;;;;;;19.93;71.71;99817.66;5056173;28;20128;-92
2022/07/11 09:39:34;;;;;;;7.57;1.80;;;;;;;19.95;70.85;99834.25;5035948;28;20044;-89
2022/07/11 09:41:59;;;;;;;5.30;1.88;;;;;;;19.99;70.32;99834.84;5036324;28;20036;-86
2022/07/11 09:44:31;;;;;;;3.75;1.50;;;;;;;19.97;69.52;99815.63;5053228;28;20041;-91
2022/07/11 09:46:57;;;;;;;3.40;1.77;;;;;;;20.13;68.52;99808.91;5038926;28;20036;-78
2022/07/11 09:49:30;;;;;;;2.67;1.30;;;;;;;20.32;66.79;99804.75;5055850;28;20040;-85
2022/07/11 09:52:05;;;;;;;3.30;1.40;;;;;;;20.43;65.98;99807.31;5072942;28;20033;-86
2022/07/11 09:54:30;;;;;;;3.58;1.10;;;;;;;20.36;66.06;99803.53;5012544;28;20033;-85
2022/07/11 09:56:56;;;;;;;2.05;1.25;;;;;;;20.19;66.26;99803.13;5012985;28;20034;-85
2022/07/11 09:59:23;;;;;;;3.50;1.50;;;;;;;20.10;66.77;99824.19;5012841;28;20145;-84
2022/07/11 10:01:48;;;;;;;3.78;1.50;;;;;;;19.95;67.34;99823.69;5012645;28;20104;-84
2022/07/11 10:04:13;;;;;;;5.80;1.80;;;;;;;19.93;67.11;99822.97;5012784;28;20440;-85
2022/07/11 10:06:39;;;;;;;2.35;1.27;;;;;;;19.97;67.38;99824.38;4996548;28;20160;-84
2022/07/11 10:09:05;;;;;;;3.40;1.42;;;;;;;20.06;68.13;99828.09;5012812;28;20092;-85
2022/07/11 10:11:35;;;;;;;2.20;1.13;;;;;;;20.17;66.47;99812.16;4996203;28;20054;-84
2022/07/11 10:14:02;;;;;;;1.77;1.00;;;;;;;20.31;65.63;99801.28;4996961;28;20037;-85
2022/07/11 10:16:56;;;;;;;2.65;1.23;;;;;;;20.48;63.60;99806.91;5012589;28;20069;-85
2022/07/11 10:19:37;;;;;;;6.22;1.45;;;;;;;20.49;62.21;99806.81;5012664;28;20081;-85
2022/07/11 10:22:15;;;;;;;3.15;1.15;;;;;;;20.42;63.18;99777.38;5012485;28;20026;-85
2022/07/11 10:24:46;;;;;;;5.05;1.20;;;;;;;20.56;62.97;99793.88;5002371;28;20043;-85
2022/07/11 10:27:36;;;;;;;3.35;1.27;;;;;;;20.64;62.43;99796.72;5053480;28;20033;-84
2022/07/11 10:30:02;;;;;;;;;;;;;;;20.74;62.83;99802.06;5054928;28;20048;-85
2022/07/11 10:32:28;;;;;;;1.75;0.88;;;;;;;20.65;61.05;99782.53;5054663;28;19995;-85
2022/07/11 10:35:10;;;;;;;2.25;0.98;;;;;;;20.81;61.80;99801.38;5053108;28;20126;-84
2022/07/11 10:37:51;;;;;;;2.92;1.17;;;;;;;20.94;60.14;99801.16;5052992;28;20396;-85
2022/07/11 10:40:51;;;;;;;5.30;1.25;;;;;;;21.03;60.75;99802.19;5053017;28;20044;-85
2022/07/11 10:43:20;;;;;;;1.27;0.90;;;;;;;21.05;60.20;99801.06;5052644;28;20401;-85
2022/07/11 10:46:20;;;;;;;1.40;1.23;;;;;;;21.05;60.59;99784.34;5052896;28;20032;-84
2022/07/11 10:48:51;;;;;;;;;;;;;;;21.12;60.36;99806.69;5053039;28;20055;-85
2022/07/11 10:51:26;;;;;;;3.00;1.05;;;;;;;21.08;58.54;99781.44;5072029;28;19912;-85
2022/07/11 10:53:53;;;;;;;1.90;1.00;;;;;;;21.18;59.65;99788.41;5071588;28;20044;-86
2022/07/11 10:56:40;;;;;;;2.65;1.20;;;;;;;21.30;59.97;99793.59;5054855;28;20042;-86
2022/07/11 10:59:17;;;;;;;4.40;0.98;;;;;;;21.21;57.55;99791.78;5071623;28;20043;-85
2022/07/11 11:02:00;;;;;;;2.05;1.00;;;;;;;21.21;57.61;99797.91;5054774;28;20033;-85
2022/07/11 11:04:45;;;;;;;2.00;0.93;;;;;;;21.21;58.47;99797.06;5054664;28;20030;-85
2022/07/11 11:07:35;;;;;;;1.48;0.95;;;;;;;21.21;59.32;99794.44;5071505;28;20411;-86
2022/07/11 11:10:44;;;;;;;3.97;1.15;;;;;;;21.16;59.01;99800.13;5054602;28;20024;-85
2022/07/11 11:13:10;;;;;;;4.57;1.52;;;;;;;21.28;58.91;99799.06;5053925;28;20059;-86
2022/07/11 11:15:48;;;;;;;2.53;1.02;;;;;;;21.34;58.43;99802.97;5054194;28;20112;-86
2022/07/11 11:18:25;;;;;;;1.58;1.00;;;;;;;21.36;56.24;99811.63;5071253;28;20039;-86
2022/07/11 11:21:03;;;;;;;1.67;1.15;;;;;;;21.32;55.39;99810.22;5071025;28;20058;-86
2022/07/11 11:23:37;;;;;;;2.05;1.13;;;;;;;21.32;55.60;99818.16;5054334;28;20035;-85
2022/07/11 11:26:26;;;;;;;0.90;0.75;;;;;;;21.36;55.64;99807.19;5051963;28;20039;-86
2022/07/11 11:28:56;;;;;;;5.28;1.00;;;;;;;21.36;55.00;99777.19;5053905;28;20032;-86
2022/07/11 11:31:22;;;;;;;3.15;0.95;;;;;;;21.41;54.41;99802.31;5054213;28;20102;-86
2022/07/11 11:33:48;;;;;;;1.65;1.05;;;;;;;21.51;54.29;99809.44;5070660;28;20087;-85
2022/07/11 11:36:17;;;;;;;1.23;0.90;;;;;;;21.59;53.45;99807.75;5054006;28;20082;-86
2022/07/11 11:38:43;;;;;;;2.20;1.35;;;;;;;21.72;53.42;99802.19;5053729;28;20029;-86
2022/07/11 11:41:09;;;;;;;2.17;0.90;;;;;;;21.72;55.34;99780.16;5053969;28;20090;-86
2022/07/11 11:43:37;;;;;;;1.25;1.00;;;;;;;21.88;55.99;99797.16;5053848;28;20492;-86
2022/07/11 11:46:02;;;;;;;2.95;1.17;;;;;;;21.91;55.42;99809.28;5070596;28;20063;-86